Time;durP1;ratioP1;P1;durP2;ratioP2;P2;SDS_P1;SDS_P2;PMS_P1;PMS_P2;Temp;Humidity;BMP_temperature;BMP_pressure;BME280_temperature;BME280_humidity;BME280_pressure;Samples;Min_cycle;Max_cycle;Signal;HPM_P1;HPM_P2
2021/01/24 00:00:48;;;;;;;17.30;13.20;;;5.20;99.90;;;;;;4952073;28;20913;-26
2021/01/24 00:03:15;;;;;;;21.60;14.40;;;5.10;99.90;;;;;;4970766;28;20495;-26
2021/01/24 00:05:46;;;;;;;15.37;11.90;;;5.00;99.90;;;;;;4970929;28;20434;-25
2021/01/24 00:08:12;;;;;;;15.43;12.37;;;4.90;99.90;;;;;;4952570;28;20503;-25
2021/01/24 00:10:40;;;;;;;14.07;10.83;;;4.90;99.90;;;;;;4969414;28;21020;-25
2021/01/24 00:13:08;;;;;;;16.37;12.37;;;4.90;99.90;;;;;;4973219;28;20588;-25
2021/01/24 00:15:35;;;;;;;16.60;12.17;;;4.80;99.90;;;;;;4976558;28;20445;-25
2021/01/24 00:18:02;;;;;;;13.20;10.73;;;4.80;99.90;;;;;;4978482;28;20723;-25
2021/01/24 00:20:29;;;;;;;12.63;10.83;;;4.70;99.90;;;;;;4977954;28;20445;-25
2021/01/24 00:23:01;;;;;;;18.20;13.60;;;4.70;99.90;;;;;;4976997;28;20491;-25
2021/01/24 00:25:27;;;;;;;13.30;11.27;;;4.60;99.90;;;;;;4973347;28;20465;-25
2021/01/24 00:27:55;;;;;;;13.67;11.27;;;4.60;99.90;;;;;;4974897;28;20887;-25
2021/01/24 00:30:25;;;;;;;13.73;9.63;;;4.60;99.90;;;;;;4975054;28;20480;-25
2021/01/24 00:32:52;;;;;;;12.53;9.03;;;4.70;99.90;;;;;;4971930;28;20500;-25
2021/01/24 00:35:19;;;;;;;12.00;9.80;;;4.60;99.90;;;;;;4973685;28;20441;-25
2021/01/24 00:37:46;;;;;;;11.80;9.20;;;4.60;99.90;;;;;;4972044;28;20484;-25
2021/01/24 00:40:13;;;;;;;11.97;9.50;;;4.50;99.90;;;;;;4973629;28;20456;-25
2021/01/24 00:42:40;;;;;;;11.37;10.17;;;4.50;99.90;;;;;;4954522;28;20516;-26
2021/01/24 00:45:09;;;;;;;10.97;8.20;;;4.60;99.90;;;;;;4973005;28;20455;-25
2021/01/24 00:47:40;;;;;;;12.50;10.30;;;4.60;99.90;;;;;;4973355;28;20442;-25
2021/01/24 00:50:11;;;;;;;10.53;9.53;;;4.60;99.90;;;;;;4973849;28;20531;-25
2021/01/24 00:52:37;;;;;;;12.13;9.70;;;4.50;99.90;;;;;;4973565;28;20449;-25
2021/01/24 00:55:06;;;;;;;9.93;7.93;;;4.50;99.90;;;;;;4972150;28;20473;-25
2021/01/24 00:57:33;;;;;;;11.93;8.60;;;4.50;99.90;;;;;;4973010;28;20548;-26
2021/01/24 00:59:59;;;;;;;12.20;9.50;;;4.50;99.90;;;;;;4970753;28;20801;-25
2021/01/24 01:02:27;;;;;;;10.47;8.70;;;4.70;99.90;;;;;;4974171;28;20441;-25
2021/01/24 01:04:56;;;;;;;8.80;7.90;;;4.70;99.90;;;;;;4973137;28;20429;-25
2021/01/24 01:07:23;;;;;;;9.37;7.30;;;4.80;99.90;;;;;;4974029;28;20576;-25
2021/01/24 01:09:50;;;;;;;8.47;7.63;;;4.80;99.90;;;;;;4972299;28;20433;-25
2021/01/24 01:12:17;;;;;;;9.00;7.13;;;4.60;99.90;;;;;;4971626;28;20500;-25
2021/01/24 01:14:44;;;;;;;7.50;6.83;;;4.60;99.90;;;;;;4972439;28;20465;-25
2021/01/24 01:17:11;;;;;;;7.63;6.23;;;4.60;99.90;;;;;;4974359;28;20532;-25
2021/01/24 01:19:41;;;;;;;7.33;6.07;;;4.60;99.90;;;;;;4974024;28;20840;-25
2021/01/24 01:22:10;;;;;;;7.70;6.50;;;4.50;99.90;;;;;;4972610;28;20441;-25
2021/01/24 01:24:36;;;;;;;6.20;5.53;;;4.50;99.90;;;;;;4971734;28;20468;-25
2021/01/24 01:27:04;;;;;;;6.83;5.80;;;4.50;99.90;;;;;;4973063;28;20460;-25
2021/01/24 01:29:31;;;;;;;6.00;5.50;;;4.50;99.90;;;;;;4972348;28;20736;-25
2021/01/24 01:31:57;;;;;;;6.57;5.90;;;4.40;99.90;;;;;;4972780;28;20871;-25
2021/01/24 01:34:24;;;;;;;6.03;5.27;;;4.20;99.90;;;;;;4971736;28;20457;-25
2021/01/24 01:36:51;;;;;;;5.60;5.10;;;4.10;99.90;;;;;;4972170;28;20464;-25
2021/01/24 01:39:21;;;;;;;5.77;5.27;;;4.10;99.90;;;;;;4972906;28;20437;-25
2021/01/24 01:41:47;;;;;;;5.40;4.90;;;4.10;99.90;;;;;;4972114;28;20461;-25
2021/01/24 01:44:14;;;;;;;4.60;4.20;;;4.20;99.90;;;;;;4972326;28;20434;-25
2021/01/24 01:46:41;;;;;;;5.90;5.30;;;4.30;99.90;;;;;;4972368;28;20863;-25
2021/01/24 01:49:08;;;;;;;5.80;5.10;;;4.30;99.90;;;;;;4973489;28;20460;-25
2021/01/24 01:51:35;;;;;;;5.73;5.30;;;4.40;99.90;;;;;;4971784;28;20499;-25
2021/01/24 01:54:02;;;;;;;5.13;4.63;;;4.40;99.90;;;;;;4971814;28;20484;-26
2021/01/24 01:56:32;;;;;;;6.40;5.90;;;4.50;99.90;;;;;;4971081;28;20507;-25
2021/01/24 01:58:59;;;;;;;6.57;5.43;;;4.40;99.90;;;;;;4972661;28;20737;-25
2021/01/24 02:01:33;;;;;;;5.80;5.20;;;4.50;99.90;;;;;;4972187;28;20475;-25
2021/01/24 02:04:10;;;;;;;5.53;5.03;;;4.50;99.90;;;;;;4972161;28;20503;-25
2021/01/24 02:06:44;;;;;;;5.57;5.10;;;4.50;99.90;;;;;;4972367;28;20455;-25
2021/01/24 02:09:19;;;;;;;6.17;5.67;;;4.50;99.90;;;;;;4955866;28;20858;-25
2021/01/24 02:11:54;;;;;;;7.53;6.00;;;4.60;99.90;;;;;;4971172;28;20518;-25
2021/01/24 02:14:27;;;;;;;6.20;5.60;;;4.70;99.90;;;;;;4971267;28;20468;-25
2021/01/24 02:16:56;;;;;;;5.80;5.20;;;4.70;99.90;;;;;;4972653;28;20932;-25
2021/01/24 02:19:26;;;;;;;5.03;4.57;;;4.60;99.90;;;;;;4956451;28;20544;-25
2021/01/24 02:21:55;;;;;;;5.10;4.70;;;4.60;99.90;;;;;;4971893;28;20441;-25
2021/01/24 02:24:24;;;;;;;6.50;5.80;;;4.60;99.90;;;;;;4971450;28;20800;-25
2021/01/24 02:27:03;;;;;;;5.47;4.97;;;4.60;99.90;;;;;;4971561;28;20516;-25
2021/01/24 02:29:44;;;;;;;4.47;4.10;;;4.70;99.90;;;;;;4971856;28;20460;-25
2021/01/24 02:32:18;;;;;;;4.57;4.27;;;4.70;99.90;;;;;;4970266;28;20460;-25
2021/01/24 02:34:46;;;;;;;4.30;4.00;;;4.60;99.90;;;;;;4970486;28;20580;-25
2021/01/24 02:37:15;;;;;;;4.77;4.47;;;4.60;99.90;;;;;;4970264;28;20445;-25
2021/01/24 02:39:46;;;;;;;4.57;4.20;;;4.60;99.90;;;;;;4972544;28;20544;-25
2021/01/24 02:42:14;;;;;;;4.80;4.40;;;4.70;99.90;;;;;;4971292;28;20460;-25
2021/01/24 02:44:42;;;;;;;5.17;4.77;;;4.70;99.90;;;;;;4970914;28;20438;-25
2021/01/24 02:47:10;;;;;;;4.40;4.10;;;4.80;99.90;;;;;;4971949;28;20455;-25
2021/01/24 02:49:44;;;;;;;4.23;3.83;;;4.80;99.90;;;;;;4971281;28;20481;-25
2021/01/24 02:52:11;;;;;;;4.03;3.73;;;4.80;99.90;;;;;;4971367;28;20437;-25
2021/01/24 02:54:39;;;;;;;4.70;4.30;;;4.70;99.90;;;;;;4971557;28;20504;-25
2021/01/24 02:57:07;;;;;;;4.20;3.90;;;4.70;99.90;;;;;;4972733;28;20453;-25
2021/01/24 02:59:35;;;;;;;3.90;3.60;;;4.70;99.90;;;;;;4971763;28;20442;-25
2021/01/24 03:02:03;;;;;;;4.10;3.70;;;4.60;99.90;;;;;;4971627;28;20442;-25
2021/01/24 03:04:30;;;;;;;3.37;3.17;;;4.60;99.90;;;;;;4973565;28;20723;-24
2021/01/24 03:07:01;;;;;;;2.40;2.30;;;4.40;99.90;;;;;;4973644;28;20702;-24
2021/01/24 03:09:27;;;;;;;2.40;2.30;;;4.10;99.90;;;;;;4972176;28;20561;-26
2021/01/24 03:11:58;;;;;;;2.80;2.60;;;3.80;99.90;;;;;;4971920;28;20560;-26
2021/01/24 03:14:26;;;;;;;2.60;2.47;;;3.70;99.90;;;;;;4972286;28;20568;-26
2021/01/24 03:17:03;;;;;;;2.03;1.93;;;3.60;99.90;;;;;;4971886;28;20445;-24
2021/01/24 03:19:31;;;;;;;2.00;1.90;;;3.60;99.90;;;;;;4971856;28;20441;-25
2021/01/24 03:22:01;;;;;;;2.00;1.90;;;3.50;99.90;;;;;;4970654;28;20445;-24
2021/01/24 03:24:28;;;;;;;1.63;1.53;;;3.50;99.90;;;;;;4971987;28;20681;-26
2021/01/24 03:27:01;;;;;;;2.07;1.97;;;3.40;99.90;;;;;;4959456;28;20486;-24
2021/01/24 03:29:27;;;;;;;1.93;1.83;;;3.40;99.90;;;;;;4977444;28;20695;-26
2021/01/24 03:31:55;;;;;;;1.80;1.70;;;3.50;99.90;;;;;;4958652;28;20468;-26
2021/01/24 03:34:24;;;;;;;1.87;1.77;;;3.50;99.90;;;;;;4976607;28;20575;-24
2021/01/24 03:36:53;;;;;;;2.33;2.23;;;3.50;99.90;;;;;;4977213;28;20438;-24
2021/01/24 03:39:24;;;;;;;1.70;1.63;;;3.40;99.90;;;;;;4976477;28;20437;-24
2021/01/24 03:41:51;;;;;;;3.03;2.13;;;3.50;99.90;;;;;;4977504;28;20461;-24
2021/01/24 03:44:18;;;;;;;1.50;1.50;;;3.40;99.90;;;;;;4974922;28;20441;-24
2021/01/24 03:46:44;;;;;;;1.60;1.57;;;3.30;99.90;;;;;;4971260;28;20452;-24
2021/01/24 03:49:11;;;;;;;1.90;1.80;;;3.40;99.90;;;;;;4972763;28;21167;-24
2021/01/24 03:51:38;;;;;;;1.97;1.93;;;3.50;99.90;;;;;;4971754;28;20575;-24
2021/01/24 03:54:05;;;;;;;1.93;1.83;;;3.50;99.90;;;;;;4972773;28;20473;-24
2021/01/24 03:56:33;;;;;;;2.13;2.03;;;3.60;99.90;;;;;;4972072;28;20925;-24
2021/01/24 03:58:59;;;;;;;2.10;2.00;;;3.60;99.90;;;;;;4975270;28;20743;-24
2021/01/24 04:01:26;;;;;;;2.30;2.20;;;3.60;99.90;;;;;;4975548;28;20437;-25
2021/01/24 04:03:53;;;;;;;1.50;1.50;;;3.60;99.90;;;;;;4975668;28;20514;-25
2021/01/24 04:06:20;;;;;;;1.60;1.60;;;3.60;99.90;;;;;;4973902;28;20949;-25
2021/01/24 04:08:46;;;;;;;2.03;1.93;;;3.50;99.90;;;;;;4974476;28;20518;-25
2021/01/24 04:11:15;;;;;;;1.80;1.80;;;3.60;99.90;;;;;;4972753;28;20810;-25
2021/01/24 04:13:44;;;;;;;3.33;2.77;;;3.60;99.90;;;;;;4974487;28;20563;-25
2021/01/24 04:16:11;;;;;;;7.70;6.00;;;3.50;99.90;;;;;;4975175;28;20774;-25
2021/01/24 04:18:38;;;;;;;2.20;2.10;;;3.50;99.90;;;;;;4975442;28;20469;-25
2021/01/24 04:21:05;;;;;;;2.30;2.20;;;3.50;99.90;;;;;;4974680;28;20465;-25
2021/01/24 04:23:32;;;;;;;3.23;3.03;;;3.30;99.90;;;;;;4975440;28;20441;-25
2021/01/24 04:25:59;;;;;;;2.90;2.70;;;3.20;99.90;;;;;;4957205;28;20457;-25
2021/01/24 04:28:26;;;;;;;2.90;2.80;;;3.10;99.90;;;;;;4974462;28;20904;-24
2021/01/24 04:30:54;;;;;;;2.63;2.47;;;2.80;99.90;;;;;;4975159;28;20446;-24
2021/01/24 04:33:21;;;;;;;3.30;3.10;;;2.80;99.90;;;;;;4972371;28;20475;-24
2021/01/24 04:35:48;;;;;;;2.90;2.80;;;2.70;99.90;;;;;;4974865;28;20437;-24
2021/01/24 04:38:14;;;;;;;3.60;3.40;;;2.70;99.90;;;;;;4975893;28;20463;-24
2021/01/24 04:40:41;;;;;;;3.40;3.13;;;2.70;99.90;;;;;;4975830;28;20483;-24
2021/01/24 04:43:08;;;;;;;3.90;3.60;;;2.60;99.90;;;;;;4975125;28;20445;-24
2021/01/24 04:45:35;;;;;;;3.60;3.37;;;2.70;99.90;;;;;;4958226;28;20433;-24
2021/01/24 04:48:03;;;;;;;6.27;5.77;;;2.90;99.90;;;;;;4980868;28;20449;-24
2021/01/24 04:50:32;;;;;;;4.17;3.80;;;2.90;99.90;;;;;;4974323;28;20485;-24
2021/01/24 04:52:59;;;;;;;3.63;3.33;;;2.90;99.90;;;;;;4973587;28;20539;-24
2021/01/24 04:55:27;;;;;;;3.83;3.53;;;2.90;99.90;;;;;;4974184;28;20523;-24
2021/01/24 04:57:54;;;;;;;3.97;3.60;;;2.90;99.90;;;;;;4973960;28;20445;-24
2021/01/24 05:00:21;;;;;;;3.10;2.90;;;2.80;99.90;;;;;;4972407;28;20449;-24
2021/01/24 05:02:48;;;;;;;3.73;3.43;;;2.80;99.90;;;;;;4971934;28;20548;-24
2021/01/24 05:05:16;;;;;;;3.37;3.17;;;2.80;99.90;;;;;;4971890;28;20441;-24
2021/01/24 05:07:55;;;;;;;4.53;4.13;;;2.70;99.90;;;;;;4973362;28;20557;-24
2021/01/24 05:10:24;;;;;;;3.90;3.50;;;2.50;99.90;;;;;;4972557;28;20878;-24
2021/01/24 05:12:51;;;;;;;3.90;3.53;;;2.40;99.90;;;;;;4972102;28;20449;-24
2021/01/24 05:15:18;;;;;;;3.60;3.30;;;2.30;99.90;;;;;;4972639;28;20464;-24
2021/01/24 05:17:53;;;;;;;4.40;4.00;;;2.40;99.90;;;;;;4973775;28;20774;-24
2021/01/24 05:20:25;;;;;;;4.20;3.80;;;2.40;99.90;;;;;;4973712;28;20469;-24
2021/01/24 05:22:55;;;;;;;4.00;3.70;;;2.40;99.90;;;;;;4972759;28;20440;-24
2021/01/24 05:25:23;;;;;;;4.00;3.67;;;2.40;99.90;;;;;;4973356;28;20465;-24
2021/01/24 05:27:51;;;;;;;3.97;3.57;;;2.30;99.90;;;;;;4973115;28;21186;-24
2021/01/24 05:30:22;;;;;;;3.67;3.43;;;2.40;99.90;;;;;;4973269;28;20438;-24
2021/01/24 05:32:53;;;;;;;4.63;4.30;;;2.40;99.90;;;;;;4972573;28;20548;-24
2021/01/24 05:35:19;;;;;;;4.80;4.13;;;2.40;99.90;;;;;;4972653;28;20469;-24
2021/01/24 05:37:47;;;;;;;4.03;3.73;;;2.30;99.90;;;;;;4972930;28;20437;-24
2021/01/24 05:40:15;;;;;;;4.47;4.10;;;2.30;99.90;;;;;;4974145;28;20791;-24
2021/01/24 05:42:42;;;;;;;6.20;5.70;;;2.20;99.90;;;;;;4973729;28;20437;-24
2021/01/24 05:45:10;;;;;;;4.03;3.63;;;2.20;99.90;;;;;;4973327;28;20540;-24
2021/01/24 05:47:38;;;;;;;5.77;5.10;;;2.30;99.90;;;;;;4972632;28;20484;-24
2021/01/24 05:50:09;;;;;;;5.63;5.17;;;2.10;99.90;;;;;;4973180;28;20489;-24
2021/01/24 05:52:39;;;;;;;4.13;3.83;;;2.00;99.90;;;;;;4977553;28;20441;-24
2021/01/24 05:55:08;;;;;;;6.83;4.23;;;2.00;99.90;;;;;;4976934;28;20469;-24
2021/01/24 05:57:40;;;;;;;4.27;3.87;;;1.90;99.90;;;;;;4976102;28;20473;-24
2021/01/24 06:00:08;;;;;;;3.97;3.67;;;1.80;99.90;;;;;;4972705;28;20468;-24
2021/01/24 06:02:37;;;;;;;4.40;4.10;;;1.70;99.90;;;;;;4973297;28;20457;-24
2021/01/24 06:05:05;;;;;;;4.87;4.40;;;1.70;99.90;;;;;;4974283;28;21183;-24
2021/01/24 06:07:34;;;;;;;4.00;3.60;;;1.60;99.90;;;;;;4980260;28;20434;-24
2021/01/24 06:10:01;;;;;;;4.67;3.97;;;1.60;99.90;;;;;;4975598;28;20469;-24
2021/01/24 06:12:31;;;;;;;4.78;4.35;;;1.60;99.90;;;;;;4974217;28;20503;-24
2021/01/24 06:15:03;;;;;;;5.53;4.00;;;1.60;99.90;;;;;;4975152;28;20221;-24
2021/01/24 06:17:36;;;;;;;6.55;4.38;;;1.60;99.90;;;;;;4974740;28;20522;-24
2021/01/24 06:20:05;;;;;;;5.10;4.60;;;1.60;99.90;;;;;;4972215;28;20207;-24
2021/01/24 06:22:45;;;;;;;4.97;3.87;;;1.60;99.90;;;;;;4973532;28;20447;-24
2021/01/24 06:25:18;;;;;;;4.93;4.53;;;1.60;99.90;;;;;;4972050;28;20527;-24
2021/01/24 06:27:53;;;;;;;5.10;4.17;;;1.60;99.90;;;;;;4974305;28;20477;-24
2021/01/24 06:30:24;;;;;;;5.10;4.60;;;1.70;99.90;;;;;;4974561;28;20748;-24
2021/01/24 06:32:51;;;;;;;7.47;4.47;;;1.60;99.90;;;;;;4972916;28;20747;-24
2021/01/24 06:35:21;;;;;;;5.13;4.60;;;1.60;99.90;;;;;;4972837;28;20225;-24
2021/01/24 06:37:50;;;;;;;5.43;4.75;;;1.60;99.90;;;;;;4971819;28;20465;-24
2021/01/24 06:40:22;;;;;;;6.18;4.72;;;1.70;99.90;;;;;;4972708;28;20196;-24
2021/01/24 06:42:54;;;;;;;7.43;5.70;;;1.90;99.90;;;;;;4970348;28;20266;-24
2021/01/24 06:45:41;;;;;;;5.80;5.20;;;2.10;99.90;;;;;;4971473;28;20441;-24
2021/01/24 06:48:08;;;;;;;5.70;5.20;;;2.20;99.90;;;;;;4972854;28;20461;-24
2021/01/24 06:50:37;;;;;;;7.53;5.90;;;2.20;99.90;;;;;;4971210;28;20484;-24
2021/01/24 06:53:06;;;;;;;7.10;5.03;;;2.30;99.90;;;;;;4971334;28;20752;-24
2021/01/24 06:55:33;;;;;;;6.07;5.57;;;2.40;99.90;;;;;;4941787;28;20597;-24
2021/01/24 06:58:28;;;;;;;6.50;5.90;;;2.40;99.90;;;;;;4974084;28;20441;-24
2021/01/24 07:01:21;;;;;;;5.00;4.60;;;2.40;99.90;;;;;;4970107;28;20476;-24
2021/01/24 07:03:47;;;;;;;5.50;5.10;;;2.40;99.90;;;;;;4970498;28;20468;-24
2021/01/24 07:06:41;;;;;;;5.40;4.40;;;2.40;99.90;;;;;;4963234;28;20747;-24
2021/01/24 07:09:38;;;;;;;9.83;5.27;;;2.40;99.90;;;;;;4936347;28;20867;-24
2021/01/24 07:12:07;;;;;;;5.00;4.60;;;2.30;99.90;;;;;;4970633;28;20907;-25
2021/01/24 07:14:48;;;;;;;5.40;4.90;;;2.20;99.90;;;;;;4969307;28;20469;-23
2021/01/24 07:17:20;;;;;;;6.53;5.80;;;2.30;99.90;;;;;;4971027;28;20484;-23
2021/01/24 07:19:49;;;;;;;7.33;6.00;;;2.20;99.90;;;;;;4970562;28;20541;-25
2021/01/24 07:22:17;;;;;;;6.63;6.03;;;2.20;99.90;;;;;;4962113;28;20452;-25
2021/01/24 07:24:45;;;;;;;6.90;4.83;;;2.30;99.90;;;;;;4971735;28;20447;-23
2021/01/24 07:27:16;;;;;;;5.53;4.80;;;2.20;99.90;;;;;;4973308;28;20889;-25
2021/01/24 07:29:45;;;;;;;6.57;5.83;;;2.10;99.90;;;;;;4971305;28;20505;-25
2021/01/24 07:32:14;;;;;;;7.47;5.60;;;2.00;99.90;;;;;;4969624;28;20809;-25
2021/01/24 07:34:42;;;;;;;8.43;6.03;;;1.90;99.90;;;;;;4974731;28;20489;-25
2021/01/24 07:37:09;;;;;;;6.13;5.53;;;1.80;99.90;;;;;;4978484;28;20791;-25
2021/01/24 07:39:37;;;;;;;6.23;5.50;;;1.80;99.90;;;;;;4979564;28;20226;-25
2021/01/24 07:42:05;;;;;;;6.23;5.00;;;1.80;99.90;;;;;;4979840;28;20455;-25
2021/01/24 07:44:37;;;;;;;6.47;5.70;;;1.90;99.90;;;;;;4974012;28;20866;-25
2021/01/24 07:47:07;;;;;;;6.20;5.60;;;1.90;99.90;;;;;;4971122;28;20457;-25
2021/01/24 07:49:35;;;;;;;7.93;5.90;;;1.90;99.90;;;;;;4971248;28;21051;-25
2021/01/24 07:52:02;;;;;;;6.33;5.50;;;2.00;99.90;;;;;;4968231;28;20449;-25
2021/01/24 07:54:30;;;;;;;6.30;5.57;;;2.10;99.90;;;;;;4969741;28;20992;-25
2021/01/24 07:56:57;;;;;;;8.13;5.20;;;2.20;99.90;;;;;;4969469;28;20974;-25
2021/01/24 07:59:25;;;;;;;6.43;5.40;;;2.30;99.90;;;;;;4952818;28;20551;-25
2021/01/24 08:01:53;;;;;;;6.37;5.80;;;2.40;99.90;;;;;;4969750;28;20452;-25
2021/01/24 08:04:23;;;;;;;7.30;6.50;;;2.40;99.90;;;;;;4958947;28;20449;-25
2021/01/24 08:06:52;;;;;;;7.10;6.00;;;2.40;99.90;;;;;;4969495;28;20446;-24
2021/01/24 08:09:22;;;;;;;8.10;4.87;;;2.50;99.90;;;;;;4967719;28;20441;-25
2021/01/24 08:11:49;;;;;;;6.47;5.77;;;2.50;99.90;;;;;;4966794;28;20824;-24
2021/01/24 08:14:16;;;;;;;5.23;4.83;;;2.50;99.90;;;;;;4968486;28;20472;-24
2021/01/24 08:16:45;;;;;;;8.23;5.97;;;2.70;99.90;;;;;;4969770;28;20441;-24
2021/01/24 08:19:17;;;;;;;5.10;4.70;;;2.70;99.90;;;;;;4968698;28;20560;-25
2021/01/24 08:21:45;;;;;;;8.73;5.73;;;2.70;99.90;;;;;;4968997;28;21047;-24
2021/01/24 08:24:17;;;;;;;6.07;5.50;;;2.60;99.90;;;;;;4969123;28;20430;-24
2021/01/24 08:26:47;;;;;;;5.37;4.87;;;2.50;99.90;;;;;;4970315;28;20531;-24
2021/01/24 08:29:15;;;;;;;5.57;5.10;;;2.50;99.90;;;;;;4952514;28;20469;-24
2021/01/24 08:31:45;;;;;;;5.43;5.03;;;2.50;99.90;;;;;;4969231;28;20452;-24
2021/01/24 08:34:14;;;;;;;7.73;5.13;;;2.60;99.90;;;;;;4968645;28;20481;-24
2021/01/24 08:36:42;;;;;;;6.10;5.20;;;2.50;99.90;;;;;;4969821;28;20548;-24
2021/01/24 08:39:08;;;;;;;6.27;5.73;;;2.60;99.90;;;;;;4968866;28;20456;-24
2021/01/24 08:41:37;;;;;;;5.63;5.13;;;2.80;99.90;;;;;;4969369;28;20476;-24
2021/01/24 08:44:06;;;;;;;7.93;5.80;;;2.80;99.90;;;;;;4968726;28;20457;-24
2021/01/24 08:46:39;;;;;;;5.23;4.80;;;2.80;99.90;;;;;;4974457;28;20487;-24
2021/01/24 08:49:08;;;;;;;6.30;5.50;;;2.90;99.90;;;;;;4970862;28;20475;-24
2021/01/24 08:51:43;;;;;;;8.60;5.90;;;3.00;99.90;;;;;;4967453;28;20560;-24
2021/01/24 08:54:21;;;;;;;7.43;5.20;;;2.90;99.90;;;;;;4968059;28;20499;-24
2021/01/24 08:56:50;;;;;;;11.77;6.80;;;2.90;99.90;;;;;;4967038;28;20477;-24
2021/01/24 08:59:24;;;;;;;5.93;5.00;;;2.80;99.90;;;;;;4965623;28;20479;-24
2021/01/24 09:01:53;;;;;;;5.07;4.40;;;2.80;99.90;;;;;;4965076;28;20445;-24
2021/01/24 09:04:27;;;;;;;5.27;4.67;;;2.70;99.90;;;;;;4967678;28;21043;-24
2021/01/24 09:07:11;;;;;;;5.00;4.50;;;2.70;99.90;;;;;;4966684;28;20460;-24
2021/01/24 09:09:42;;;;;;;4.50;4.20;;;2.90;99.90;;;;;;4969276;28;20460;-24
2021/01/24 09:12:12;;;;;;;5.00;4.60;;;3.10;99.90;;;;;;4971494;28;20532;-24
2021/01/24 09:14:39;;;;;;;5.73;5.20;;;3.20;99.90;;;;;;4969918;28;20476;-24
2021/01/24 09:17:09;;;;;;;5.10;4.70;;;3.20;99.90;;;;;;4967940;28;20540;-24
2021/01/24 09:19:38;;;;;;;5.10;4.70;;;3.10;99.90;;;;;;4967748;28;20961;-24
2021/01/24 09:22:10;;;;;;;4.87;4.27;;;3.20;99.90;;;;;;4970010;28;20986;-24
2021/01/24 09:24:38;;;;;;;5.07;4.60;;;3.30;99.90;;;;;;4974426;28;20452;-25
2021/01/24 09:27:07;;;;;;;5.63;5.13;;;3.20;99.90;;;;;;4972503;28;20445;-24
2021/01/24 09:29:36;;;;;;;5.10;4.70;;;3.20;99.90;;;;;;4970063;28;20449;-24
2021/01/24 09:32:04;;;;;;;4.63;4.23;;;3.10;99.90;;;;;;4967945;28;20573;-24
2021/01/24 09:34:30;;;;;;;6.20;4.47;;;3.10;99.90;;;;;;4968713;28;20488;-24
2021/01/24 09:36:57;;;;;;;5.37;4.70;;;3.20;99.90;;;;;;4964638;28;20782;-24
2021/01/24 09:39:24;;;;;;;5.07;4.60;;;3.20;99.90;;;;;;4948731;28;20540;-24
2021/01/24 09:41:51;;;;;;;4.63;4.13;;;3.20;99.90;;;;;;4964758;28;20449;-24
2021/01/24 09:44:18;;;;;;;5.47;5.07;;;3.20;99.90;;;;;;4966730;28;20665;-24
2021/01/24 09:46:45;;;;;;;7.23;4.93;;;3.10;99.90;;;;;;4965946;28;20919;-24
2021/01/24 09:49:12;;;;;;;4.03;3.73;;;3.20;99.90;;;;;;4965561;28;21033;-24
2021/01/24 09:51:39;;;;;;;6.83;4.00;;;3.20;99.90;;;;;;4965927;28;20491;-24
2021/01/24 09:54:07;;;;;;;4.93;4.50;;;3.20;99.90;;;;;;4966721;28;20644;-24
2021/01/24 09:56:33;;;;;;;5.43;4.93;;;3.40;99.90;;;;;;4963916;28;20524;-24
2021/01/24 09:59:00;;;;;;;6.00;5.40;;;3.30;99.90;;;;;;4963413;28;20791;-24
2021/01/24 10:01:27;;;;;;;7.77;4.20;;;3.30;99.90;;;;;;4948198;28;20539;-24
2021/01/24 10:03:55;;;;;;;6.70;5.20;;;3.20;99.90;;;;;;4965791;28;20674;-24
2021/01/24 10:06:21;;;;;;;6.73;5.93;;;3.20;99.90;;;;;;4963916;28;20650;-24
2021/01/24 10:08:49;;;;;;;6.47;4.90;;;3.20;99.90;;;;;;4963259;28;20469;-24
2021/01/24 10:11:16;;;;;;;8.40;7.50;;;3.20;99.90;;;;;;4946750;28;20445;-24
2021/01/24 10:13:43;;;;;;;10.90;6.63;;;3.10;99.90;;;;;;4964388;28;21017;-25
2021/01/24 10:16:10;;;;;;;6.37;5.77;;;3.10;99.90;;;;;;4966419;28;20770;-24
2021/01/24 10:18:37;;;;;;;6.33;5.60;;;3.00;99.90;;;;;;4966631;28;20465;-24
2021/01/24 10:21:05;;;;;;;6.50;5.20;;;3.00;99.90;;;;;;4964862;28;20739;-23
2021/01/24 10:23:32;;;;;;;9.57;5.80;;;2.90;99.90;;;;;;4948447;28;20525;-25
2021/01/24 10:25:59;;;;;;;6.67;4.43;;;2.70;99.90;;;;;;4962946;28;20452;-25
2021/01/24 10:28:26;;;;;;;5.03;4.60;;;2.70;99.90;;;;;;4963149;28;20720;-25
2021/01/24 10:30:54;;;;;;;5.50;5.00;;;2.70;99.90;;;;;;4963846;28;21075;-24
2021/01/24 10:33:22;;;;;;;7.23;5.30;;;2.80;99.90;;;;;;4965361;28;20871;-25
2021/01/24 10:35:49;;;;;;;5.83;5.33;;;2.80;99.90;;;;;;4964550;28;20621;-23
2021/01/24 10:38:17;;;;;;;7.47;6.87;;;2.90;99.90;;;;;;4955249;28;20894;-23
2021/01/24 10:40:45;;;;;;;6.57;5.40;;;3.10;99.90;;;;;;4963962;28;20895;-24
2021/01/24 10:43:11;;;;;;;8.83;5.87;;;3.20;99.90;;;;;;4966137;28;20464;-24
2021/01/24 10:45:39;;;;;;;8.27;5.50;;;3.10;99.90;;;;;;4968651;28;20536;-24
2021/01/24 10:48:07;;;;;;;7.53;5.50;;;3.00;99.90;;;;;;4968248;28;20510;-24
2021/01/24 10:50:38;;;;;;;5.57;5.03;;;3.00;99.90;;;;;;4970376;28;20476;-23
2021/01/24 10:53:05;;;;;;;6.07;4.83;;;3.00;99.90;;;;;;4966116;28;20472;-24
2021/01/24 10:55:33;;;;;;;6.67;5.10;;;3.00;99.90;;;;;;4965652;28;20592;-24
2021/01/24 10:58:01;;;;;;;8.43;5.10;;;3.10;99.90;;;;;;4964189;28;20902;-24
2021/01/24 11:00:28;;;;;;;6.10;5.60;;;3.10;99.90;;;;;;4962998;28;20500;-24
2021/01/24 11:02:55;;;;;;;7.67;6.30;;;3.10;99.90;;;;;;4959294;28;20445;-24
2021/01/24 11:05:21;;;;;;;6.60;6.00;;;3.10;99.90;;;;;;4963992;28;20801;-25
2021/01/24 11:07:49;;;;;;;6.10;5.30;;;3.10;99.90;;;;;;4962927;28;20495;-24
2021/01/24 11:10:15;;;;;;;5.17;4.77;;;3.10;99.90;;;;;;4963728;28;20598;-24
2021/01/24 11:12:43;;;;;;;5.90;5.37;;;3.00;99.90;;;;;;4966156;28;20430;-24
2021/01/24 11:15:11;;;;;;;5.50;5.00;;;3.10;99.90;;;;;;4966634;28;20504;-24
2021/01/24 11:17:41;;;;;;;5.40;5.00;;;3.30;99.90;;;;;;4967105;28;20468;-26
2021/01/24 11:20:11;;;;;;;9.37;5.37;;;3.20;99.90;;;;;;4964259;28;20724;-24
2021/01/24 11:22:38;;;;;;;7.23;5.60;;;3.30;99.90;;;;;;4963588;28;20507;-25
2021/01/24 11:25:09;;;;;;;6.30;5.20;;;3.40;99.90;;;;;;4964477;28;20658;-25
2021/01/24 11:27:36;;;;;;;5.80;5.20;;;3.50;99.90;;;;;;4962756;28;20441;-25
2021/01/24 11:30:08;;;;;;;5.67;5.10;;;3.60;99.90;;;;;;4964548;28;20847;-25
2021/01/24 11:32:37;;;;;;;5.80;5.23;;;3.80;99.90;;;;;;4963200;28;20461;-25
2021/01/24 11:35:05;;;;;;;5.53;5.10;;;3.90;99.90;;;;;;4965312;28;20476;-25
2021/01/24 11:37:32;;;;;;;4.80;4.40;;;3.80;99.90;;;;;;4964919;28;20658;-25
2021/01/24 11:39:59;;;;;;;5.53;5.13;;;3.70;99.90;;;;;;4964108;28;20441;-25
2021/01/24 11:42:25;;;;;;;4.57;4.20;;;3.70;99.90;;;;;;4963512;28;20633;-25
2021/01/24 11:44:52;;;;;;;4.50;4.20;;;3.60;99.90;;;;;;4962331;28;20863;-25
2021/01/24 11:47:21;;;;;;;4.90;4.50;;;3.60;99.90;;;;;;4962657;28;20697;-25
2021/01/24 11:49:47;;;;;;;4.70;3.90;;;3.50;99.90;;;;;;4962732;28;21172;-25
2021/01/24 11:52:14;;;;;;;4.77;4.33;;;3.50;99.90;;;;;;4963031;28;20543;-25
2021/01/24 11:54:40;;;;;;;4.80;4.30;;;3.40;99.90;;;;;;4965209;28;20568;-25
2021/01/24 11:57:07;;;;;;;4.57;3.90;;;3.50;99.90;;;;;;4962865;28;20464;-25
2021/01/24 11:59:34;;;;;;;4.93;4.50;;;3.70;99.90;;;;;;4966227;28;20447;-25
2021/01/24 12:02:01;;;;;;;4.10;3.80;;;3.60;99.90;;;;;;4964999;28;20719;-25
2021/01/24 12:04:28;;;;;;;3.93;3.73;;;3.60;99.90;;;;;;4965017;28;20754;-25
2021/01/24 12:06:56;;;;;;;4.50;4.10;;;3.70;99.90;;;;;;4960840;28;20441;-25
2021/01/24 12:09:23;;;;;;;3.43;3.17;;;3.60;99.90;;;;;;4963452;28;20806;-25
2021/01/24 12:11:49;;;;;;;4.40;4.00;;;3.60;99.90;;;;;;4964356;28;20693;-25
2021/01/24 12:14:16;;;;;;;3.73;3.47;;;3.60;99.90;;;;;;4964920;28;20473;-25
2021/01/24 12:16:43;;;;;;;4.67;4.03;;;3.70;99.90;;;;;;4964852;28;20437;-25
2021/01/24 12:19:10;;;;;;;6.67;4.40;;;3.90;99.90;;;;;;4966603;28;20460;-25
2021/01/24 12:21:37;;;;;;;4.17;3.57;;;4.00;99.90;;;;;;4968851;28;20468;-25
2021/01/24 12:24:07;;;;;;;3.73;3.43;;;4.10;99.90;;;;;;4968822;28;20449;-25
2021/01/24 12:26:33;;;;;;;3.73;3.43;;;4.10;99.90;;;;;;4970050;28;20461;-25
2021/01/24 12:29:00;;;;;;;3.90;3.50;;;4.10;99.90;;;;;;4969048;28;20445;-25
2021/01/24 12:31:27;;;;;;;5.80;4.10;;;3.90;99.90;;;;;;4967267;28;20465;-25
2021/01/24 12:33:54;;;;;;;3.80;3.60;;;3.80;99.90;;;;;;4968301;28;20531;-25
2021/01/24 12:36:22;;;;;;;3.77;3.57;;;3.50;99.90;;;;;;4968152;28;20473;-24
2021/01/24 12:38:50;;;;;;;6.50;4.10;;;3.20;99.90;;;;;;4969345;28;20759;-24
2021/01/24 12:41:18;;;;;;;4.70;4.30;;;3.30;99.90;;;;;;4968988;28;20848;-24
2021/01/24 12:43:45;;;;;;;3.80;3.50;;;3.20;99.90;;;;;;4967100;28;20769;-24
2021/01/24 12:46:11;;;;;;;4.40;3.90;;;3.00;99.90;;;;;;4965487;28;20555;-24
2021/01/24 12:48:39;;;;;;;5.93;5.53;;;3.20;99.90;;;;;;4967775;28;20465;-24
2021/01/24 12:51:06;;;;;;;4.77;4.40;;;3.10;99.90;;;;;;4968872;28;20580;-24
2021/01/24 12:53:33;;;;;;;5.47;5.03;;;3.10;99.90;;;;;;4970514;28;20464;-24
2021/01/24 12:56:01;;;;;;;5.33;4.67;;;3.10;99.90;;;;;;4967259;28;20814;-24
2021/01/24 12:58:29;;;;;;;4.30;3.90;;;3.10;99.90;;;;;;4967364;28;20460;-24
2021/01/24 13:00:56;;;;;;;4.57;4.13;;;2.90;99.90;;;;;;4969741;28;20536;-24
2021/01/24 13:03:23;;;;;;;4.10;3.40;;;2.90;99.90;;;;;;4968375;28;20469;-24